RAF3WC EGXC-EGXC
Flight info
| Callsign | RAF3WC |
|---|---|
| Flight time | N/A |
| Altitude | 40000 |
| Route | OTR DCT LEE DCT WTN DCT WAL DCT SWB DCT WIT |
| Aircraft | F18S/M-SDFGRWY/S |
Departure
| Time | 2026-04-11 21:40 |
|---|---|
| Airport | RAF Coningsby (EGXC) |
Arrival
| Time | N/A |
|---|---|
| Airport | RAF Coningsby (EGXC) |
| Time | Latitude | Longitude | Altitude | Speed | Heading |
|---|---|---|---|---|---|
| 2026-04-11 21:25 | 53.09199 | -0.15976 | 28 ft | 0 kts | 354° |
| 2026-04-11 21:38 | 53.09252 | -0.15985 | 28 ft | 0 kts | 354° |
| 2026-04-11 21:38 | 53.09290 | -0.15989 | 28 ft | 1 kts | 4° |
| 2026-04-11 21:38 | 53.09293 | -0.15989 | 28 ft | 5 kts | 4° |
| 2026-04-11 21:38 | 53.09335 | -0.15984 | 29 ft | 13 kts | 4° |
| 2026-04-11 21:39 | 53.09432 | -0.15977 | 30 ft | 0 kts | 1° |
| 2026-04-11 21:39 | 53.09454 | -0.15977 | 30 ft | 0 kts | 359° |
| 2026-04-11 21:39 | 53.09527 | -0.15976 | 28 ft | 36 kts | 0° |
| 2026-04-11 21:39 | 53.10261 | -0.16119 | 92 ft | 172 kts | 341° |
| 2026-04-11 21:40 | 53.11615 | -0.16674 | 1330 ft | 229 kts | 334° |
| 2026-04-11 21:40 | 53.13262 | -0.17674 | 3189 ft | 271 kts | 330° |
| 2026-04-11 21:40 | 53.15098 | -0.18731 | 5773 ft | 261 kts | 335° |
| 2026-04-11 21:40 | 53.16594 | -0.19454 | 9576 ft | 165 kts | 332° |
| 2026-04-11 21:41 | 53.17284 | -0.19595 | 12761 ft | 48 kts | 320° |
| 2026-04-11 21:41 | 53.17414 | -0.19267 | 12179 ft | 56 kts | 148° |
| 2026-04-11 21:41 | 53.16683 | -0.19153 | 6749 ft | 290 kts | 185° |
| 2026-04-11 21:41 | 53.14971 | -0.17924 | 7645 ft | 342 kts | 116° |
| 2026-04-11 21:42 | 53.14994 | -0.13053 | 5440 ft | 492 kts | 86° |
| 2026-04-11 21:42 | 53.15503 | -0.07262 | 4625 ft | 387 kts | 85° |
| 2026-04-11 21:42 | 53.15458 | -0.09120 | 1095 ft | 245 kts | 261° |
| 2026-04-11 21:42 | 53.16612 | -0.11116 | 1820 ft | 313 kts | 332° |
| 2026-04-11 21:43 | 53.18908 | -0.12573 | 3051 ft | 391 kts | 334° |